sensor_id;sensor_type;location;lat;lon;timestamp;P1;durP1;ratioP1;P2;durP2;ratioP2
8698;SDS011;4386;51.236;6.742;2022-09-28T00:00:41;3.10;;;2.80;;
8698;SDS011;4386;51.236;6.742;2022-09-28T00:01:48;6.68;;;2.30;;
8698;SDS011;4386;51.236;6.742;2022-09-28T00:02:50;7.90;;;2.30;;
8698;SDS011;4386;51.236;6.742;2022-09-28T00:03:54;2.30;;;2.10;;
8698;SDS011;4386;51.236;6.742;2022-09-28T00:04:58;3.83;;;2.92;;
8698;SDS011;4386;51.236;6.742;2022-09-28T00:06:02;6.15;;;2.30;;
8698;SDS011;4386;51.236;6.742;2022-09-28T00:07:04;2.13;;;2.03;;
8698;SDS011;4386;51.236;6.742;2022-09-28T00:08:08;2.42;;;2.22;;
8698;SDS011;4386;51.236;6.742;2022-09-28T00:09:09;2.53;;;2.33;;
8698;SDS011;4386;51.236;6.742;2022-09-28T00:10:12;3.38;;;2.63;;
8698;SDS011;4386;51.236;6.742;2022-09-28T00:11:14;2.83;;;2.58;;
8698;SDS011;4386;51.236;6.742;2022-09-28T00:12:19;5.70;;;3.08;;
8698;SDS011;4386;51.236;6.742;2022-09-28T00:13:21;2.92;;;2.70;;
8698;SDS011;4386;51.236;6.742;2022-09-28T00:14:24;3.08;;;2.30;;
8698;SDS011;4386;51.236;6.742;2022-09-28T00:15:26;3.25;;;2.70;;
8698;SDS011;4386;51.236;6.742;2022-09-28T00:16:29;7.60;;;2.83;;
8698;SDS011;4386;51.236;6.742;2022-09-28T00:17:33;4.70;;;2.78;;
8698;SDS011;4386;51.236;6.742;2022-09-28T00:18:36;4.40;;;3.13;;
8698;SDS011;4386;51.236;6.742;2022-09-28T00:19:38;4.35;;;2.60;;
8698;SDS011;4386;51.236;6.742;2022-09-28T00:20:41;2.65;;;2.30;;
8698;SDS011;4386;51.236;6.742;2022-09-28T00:21:43;6.05;;;2.78;;
8698;SDS011;4386;51.236;6.742;2022-09-28T00:22:46;3.28;;;2.72;;
8698;SDS011;4386;51.236;6.742;2022-09-28T00:23:50;2.60;;;2.40;;
8698;SDS011;4386;51.236;6.742;2022-09-28T00:25:11;3.33;;;2.80;;
8698;SDS011;4386;51.236;6.742;2022-09-28T00:26:13;5.90;;;2.72;;
8698;SDS011;4386;51.236;6.742;2022-09-28T00:27:15;3.88;;;2.50;;
8698;SDS011;4386;51.236;6.742;2022-09-28T00:28:19;3.47;;;2.95;;
8698;SDS011;4386;51.236;6.742;2022-09-28T00:29:22;3.72;;;2.90;;
8698;SDS011;4386;51.236;6.742;2022-09-28T00:30:26;3.78;;;2.90;;
8698;SDS011;4386;51.236;6.742;2022-09-28T00:31:29;3.80;;;3.10;;
8698;SDS011;4386;51.236;6.742;2022-09-28T00:32:33;5.15;;;3.08;;
8698;SDS011;4386;51.236;6.742;2022-09-28T00:33:35;3.22;;;2.92;;
8698;SDS011;4386;51.236;6.742;2022-09-28T00:34:38;3.72;;;3.42;;
8698;SDS011;4386;51.236;6.742;2022-09-28T00:35:42;5.03;;;3.05;;
8698;SDS011;4386;51.236;6.742;2022-09-28T00:36:45;3.58;;;3.28;;
8698;SDS011;4386;51.236;6.742;2022-09-28T00:37:48;7.32;;;3.40;;
8698;SDS011;4386;51.236;6.742;2022-09-28T00:38:51;5.47;;;3.10;;
8698;SDS011;4386;51.236;6.742;2022-09-28T00:39:53;4.35;;;3.22;;
8698;SDS011;4386;51.236;6.742;2022-09-28T00:40:56;3.58;;;2.80;;
8698;SDS011;4386;51.236;6.742;2022-09-28T00:41:58;3.17;;;2.88;;
8698;SDS011;4386;51.236;6.742;2022-09-28T00:43:15;4.13;;;3.45;;
8698;SDS011;4386;51.236;6.742;2022-09-28T00:44:32;4.32;;;3.63;;
8698;SDS011;4386;51.236;6.742;2022-09-28T00:45:39;4.63;;;3.83;;
8698;SDS011;4386;51.236;6.742;2022-09-28T00:46:42;4.35;;;3.53;;
8698;SDS011;4386;51.236;6.742;2022-09-28T00:47:44;3.45;;;3.15;;
8698;SDS011;4386;51.236;6.742;2022-09-28T00:48:53;5.82;;;4.10;;
8698;SDS011;4386;51.236;6.742;2022-09-28T00:49:58;4.40;;;4.00;;
8698;SDS011;4386;51.236;6.742;2022-09-28T00:51:04;8.93;;;3.67;;
8698;SDS011;4386;51.236;6.742;2022-09-28T00:52:10;5.43;;;4.10;;
8698;SDS011;4386;51.236;6.742;2022-09-28T00:53:17;4.40;;;4.00;;
8698;SDS011;4386;51.236;6.742;2022-09-28T00:54:21;4.90;;;4.05;;
8698;SDS011;4386;51.236;6.742;2022-09-28T00:55:25;4.40;;;3.60;;
8698;SDS011;4386;51.236;6.742;2022-09-28T00:56:32;4.53;;;3.50;;
8698;SDS011;4386;51.236;6.742;2022-09-28T00:57:37;8.38;;;4.20;;
8698;SDS011;4386;51.236;6.742;2022-09-28T00:58:43;6.93;;;4.68;;
8698;SDS011;4386;51.236;6.742;2022-09-28T00:59:50;6.07;;;4.70;;
8698;SDS011;4386;51.236;6.742;2022-09-28T01:00:52;4.70;;;4.20;;
8698;SDS011;4386;51.236;6.742;2022-09-28T01:01:56;4.72;;;4.32;;
8698;SDS011;4386;51.236;6.742;2022-09-28T01:02:58;6.82;;;5.13;;
8698;SDS011;4386;51.236;6.742;2022-09-28T01:04:01;12.77;;;5.30;;
8698;SDS011;4386;51.236;6.742;2022-09-28T01:05:04;6.50;;;4.70;;
8698;SDS011;4386;51.236;6.742;2022-09-28T01:06:08;5.43;;;4.93;;
8698;SDS011;4386;51.236;6.742;2022-09-28T01:07:10;7.50;;;5.47;;
8698;SDS011;4386;51.236;6.742;2022-09-28T01:08:14;7.78;;;5.38;;
8698;SDS011;4386;51.236;6.742;2022-09-28T01:09:17;7.13;;;5.25;;
8698;SDS011;4386;51.236;6.742;2022-09-28T01:10:21;5.75;;;4.90;;
8698;SDS011;4386;51.236;6.742;2022-09-28T01:11:23;5.57;;;4.97;;
8698;SDS011;4386;51.236;6.742;2022-09-28T01:12:26;5.95;;;4.63;;
8698;SDS011;4386;51.236;6.742;2022-09-28T01:13:29;6.65;;;5.43;;
8698;SDS011;4386;51.236;6.742;2022-09-28T01:14:33;7.18;;;5.43;;
8698;SDS011;4386;51.236;6.742;2022-09-28T01:15:38;8.20;;;5.40;;
8698;SDS011;4386;51.236;6.742;2022-09-28T01:16:47;7.78;;;5.43;;
8698;SDS011;4386;51.236;6.742;2022-09-28T01:17:59;9.23;;;6.32;;
8698;SDS011;4386;51.236;6.742;2022-09-28T01:19:12;6.65;;;5.43;;
8698;SDS011;4386;51.236;6.742;2022-09-28T01:20:32;8.32;;;5.80;;
8698;SDS011;4386;51.236;6.742;2022-09-28T01:21:49;6.82;;;6.13;;
8698;SDS011;4386;51.236;6.742;2022-09-28T01:23:02;6.50;;;5.43;;
8698;SDS011;4386;51.236;6.742;2022-09-28T01:24:26;6.80;;;5.15;;
8698;SDS011;4386;51.236;6.742;2022-09-28T01:25:41;7.80;;;6.25;;
8698;SDS011;4386;51.236;6.742;2022-09-28T01:26:54;6.75;;;5.75;;
8698;SDS011;4386;51.236;6.742;2022-09-28T01:28:02;6.50;;;5.82;;
8698;SDS011;4386;51.236;6.742;2022-09-28T01:29:09;8.45;;;6.30;;
8698;SDS011;4386;51.236;6.742;2022-09-28T01:30:23;10.43;;;6.20;;
8698;SDS011;4386;51.236;6.742;2022-09-28T01:31:27;7.85;;;6.03;;
8698;SDS011;4386;51.236;6.742;2022-09-28T01:32:37;7.90;;;6.28;;
8698;SDS011;4386;51.236;6.742;2022-09-28T01:33:49;7.20;;;5.90;;
8698;SDS011;4386;51.236;6.742;2022-09-28T01:34:56;6.80;;;6.07;;
8698;SDS011;4386;51.236;6.742;2022-09-28T01:36:04;6.20;;;5.65;;
8698;SDS011;4386;51.236;6.742;2022-09-28T01:37:10;8.05;;;6.13;;
8698;SDS011;4386;51.236;6.742;2022-09-28T01:38:18;6.72;;;5.60;;
8698;SDS011;4386;51.236;6.742;2022-09-28T01:39:22;7.28;;;5.80;;
8698;SDS011;4386;51.236;6.742;2022-09-28T01:40:30;7.20;;;6.50;;
8698;SDS011;4386;51.236;6.742;2022-09-28T01:41:33;9.32;;;6.60;;
8698;SDS011;4386;51.236;6.742;2022-09-28T01:42:42;9.07;;;6.32;;
8698;SDS011;4386;51.236;6.742;2022-09-28T01:43:47;7.72;;;6.40;;
8698;SDS011;4386;51.236;6.742;2022-09-28T01:44:55;7.55;;;6.25;;
8698;SDS011;4386;51.236;6.742;2022-09-28T01:46:06;7.55;;;6.80;;
8698;SDS011;4386;51.236;6.742;2022-09-28T01:47:14;7.07;;;6.13;;
8698;SDS011;4386;51.236;6.742;2022-09-28T01:48:22;8.90;;;6.75;;
8698;SDS011;4386;51.236;6.742;2022-09-28T01:49:31;8.60;;;6.90;;
8698;SDS011;4386;51.236;6.742;2022-09-28T01:50:37;6.68;;;6.07;;
8698;SDS011;4386;51.236;6.742;2022-09-28T01:51:44;8.32;;;6.05;;
8698;SDS011;4386;51.236;6.742;2022-09-28T01:52:49;7.65;;;6.30;;
8698;SDS011;4386;51.236;6.742;2022-09-28T01:53:56;8.70;;;6.45;;
8698;SDS011;4386;51.236;6.742;2022-09-28T01:55:05;8.88;;;6.47;;
8698;SDS011;4386;51.236;6.742;2022-09-28T01:56:14;8.45;;;6.40;;
8698;SDS011;4386;51.236;6.742;2022-09-28T01:57:23;7.18;;;6.47;;
8698;SDS011;4386;51.236;6.742;2022-09-28T01:58:34;10.27;;;6.15;;
8698;SDS011;4386;51.236;6.742;2022-09-28T01:59:40;7.10;;;6.38;;
8698;SDS011;4386;51.236;6.742;2022-09-28T02:00:47;7.45;;;6.40;;
8698;SDS011;4386;51.236;6.742;2022-09-28T02:01:56;9.15;;;6.53;;
8698;SDS011;4386;51.236;6.742;2022-09-28T02:03:03;9.75;;;6.05;;
8698;SDS011;4386;51.236;6.742;2022-09-28T02:04:10;7.55;;;6.78;;
8698;SDS011;4386;51.236;6.742;2022-09-28T02:05:15;7.18;;;6.30;;
8698;SDS011;4386;51.236;6.742;2022-09-28T02:06:21;6.95;;;6.05;;
8698;SDS011;4386;51.236;6.742;2022-09-28T02:07:28;9.27;;;6.72;;
8698;SDS011;4386;51.236;6.742;2022-09-28T02:08:38;6.63;;;5.93;;
8698;SDS011;4386;51.236;6.742;2022-09-28T02:09:45;7.60;;;6.20;;
8698;SDS011;4386;51.236;6.742;2022-09-28T02:10:54;6.65;;;5.97;;
8698;SDS011;4386;51.236;6.742;2022-09-28T02:12:02;7.47;;;5.50;;
8698;SDS011;4386;51.236;6.742;2022-09-28T02:13:13;8.70;;;6.15;;
8698;SDS011;4386;51.236;6.742;2022-09-28T02:14:19;6.70;;;6.05;;
8698;SDS011;4386;51.236;6.742;2022-09-28T02:15:24;7.35;;;5.90;;
8698;SDS011;4386;51.236;6.742;2022-09-28T02:16:33;6.90;;;6.03;;
8698;SDS011;4386;51.236;6.742;2022-09-28T02:17:40;11.77;;;5.53;;
8698;SDS011;4386;51.236;6.742;2022-09-28T02:18:42;7.68;;;6.00;;
8698;SDS011;4386;51.236;6.742;2022-09-28T02:19:46;7.57;;;5.90;;
8698;SDS011;4386;51.236;6.742;2022-09-28T02:20:51;6.70;;;5.93;;
8698;SDS011;4386;51.236;6.742;2022-09-28T02:22:00;12.70;;;5.65;;
8698;SDS011;4386;51.236;6.742;2022-09-28T02:23:08;8.57;;;5.85;;
8698;SDS011;4386;51.236;6.742;2022-09-28T02:24:13;7.70;;;6.00;;
8698;SDS011;4386;51.236;6.742;2022-09-28T02:25:23;7.72;;;5.95;;
8698;SDS011;4386;51.236;6.742;2022-09-28T02:26:31;6.80;;;6.10;;
8698;SDS011;4386;51.236;6.742;2022-09-28T02:27:37;10.25;;;6.65;;
8698;SDS011;4386;51.236;6.742;2022-09-28T02:28:44;7.45;;;6.05;;
8698;SDS011;4386;51.236;6.742;2022-09-28T02:29:47;6.35;;;5.70;;
8698;SDS011;4386;51.236;6.742;2022-09-28T02:30:50;7.97;;;5.18;;
8698;SDS011;4386;51.236;6.742;2022-09-28T02:31:52;9.45;;;5.30;;
8698;SDS011;4386;51.236;6.742;2022-09-28T02:32:55;6.57;;;5.88;;
8698;SDS011;4386;51.236;6.742;2022-09-28T02:34:02;10.85;;;5.70;;
8698;SDS011;4386;51.236;6.742;2022-09-28T02:35:05;8.70;;;5.88;;
8698;SDS011;4386;51.236;6.742;2022-09-28T02:36:08;8.30;;;5.80;;
8698;SDS011;4386;51.236;6.742;2022-09-28T02:37:11;6.28;;;5.65;;
8698;SDS011;4386;51.236;6.742;2022-09-28T02:38:13;10.65;;;6.60;;
8698;SDS011;4386;51.236;6.742;2022-09-28T02:39:16;9.07;;;6.28;;
8698;SDS011;4386;51.236;6.742;2022-09-28T02:40:19;9.15;;;6.07;;
8698;SDS011;4386;51.236;6.742;2022-09-28T02:41:26;8.30;;;5.75;;
8698;SDS011;4386;51.236;6.742;2022-09-28T02:42:39;7.55;;;5.93;;
8698;SDS011;4386;51.236;6.742;2022-09-28T02:43:51;6.95;;;5.68;;
8698;SDS011;4386;51.236;6.742;2022-09-28T02:45:06;7.32;;;5.28;;
8698;SDS011;4386;51.236;6.742;2022-09-28T02:46:19;6.50;;;5.63;;
8698;SDS011;4386;51.236;6.742;2022-09-28T02:47:34;7.45;;;6.28;;
8698;SDS011;4386;51.236;6.742;2022-09-28T02:48:52;7.97;;;5.88;;
8698;SDS011;4386;51.236;6.742;2022-09-28T02:50:23;7.85;;;5.65;;
8698;SDS011;4386;51.236;6.742;2022-09-28T02:51:37;7.20;;;5.85;;
8698;SDS011;4386;51.236;6.742;2022-09-28T02:52:49;5.90;;;5.32;;
8698;SDS011;4386;51.236;6.742;2022-09-28T02:54:11;8.90;;;6.00;;
8698;SDS011;4386;51.236;6.742;2022-09-28T02:55:23;7.97;;;6.28;;
8698;SDS011;4386;51.236;6.742;2022-09-28T02:56:39;8.48;;;6.90;;
8698;SDS011;4386;51.236;6.742;2022-09-28T02:57:59;8.18;;;6.50;;
8698;SDS011;4386;51.236;6.742;2022-09-28T02:59:11;7.40;;;6.70;;
8698;SDS011;4386;51.236;6.742;2022-09-28T03:00:25;6.70;;;6.03;;
8698;SDS011;4386;51.236;6.742;2022-09-28T03:01:28;11.95;;;6.22;;
8698;SDS011;4386;51.236;6.742;2022-09-28T03:02:36;8.20;;;6.80;;
8698;SDS011;4386;51.236;6.742;2022-09-28T03:03:52;9.32;;;7.32;;
8698;SDS011;4386;51.236;6.742;2022-09-28T03:05:01;9.30;;;6.63;;
8698;SDS011;4386;51.236;6.742;2022-09-28T03:06:12;7.78;;;6.20;;
8698;SDS011;4386;51.236;6.742;2022-09-28T03:07:21;8.63;;;6.43;;
8698;SDS011;4386;51.236;6.742;2022-09-28T03:08:29;7.47;;;6.57;;
8698;SDS011;4386;51.236;6.742;2022-09-28T03:09:36;9.15;;;6.90;;
8698;SDS011;4386;51.236;6.742;2022-09-28T03:10:43;8.32;;;6.93;;
8698;SDS011;4386;51.236;6.742;2022-09-28T03:11:52;10.82;;;7.32;;
8698;SDS011;4386;51.236;6.742;2022-09-28T03:12:56;9.55;;;8.13;;
8698;SDS011;4386;51.236;6.742;2022-09-28T03:13:59;8.23;;;7.18;;
8698;SDS011;4386;51.236;6.742;2022-09-28T03:15:06;13.48;;;7.60;;
8698;SDS011;4386;51.236;6.742;2022-09-28T03:16:12;11.18;;;8.40;;
8698;SDS011;4386;51.236;6.742;2022-09-28T03:17:15;12.90;;;7.20;;
8698;SDS011;4386;51.236;6.742;2022-09-28T03:18:17;17.92;;;7.90;;
8698;SDS011;4386;51.236;6.742;2022-09-28T03:19:21;9.40;;;7.15;;
8698;SDS011;4386;51.236;6.742;2022-09-28T03:20:28;12.23;;;8.43;;
8698;SDS011;4386;51.236;6.742;2022-09-28T03:21:32;12.85;;;8.82;;
8698;SDS011;4386;51.236;6.742;2022-09-28T03:22:34;11.13;;;7.10;;
8698;SDS011;4386;51.236;6.742;2022-09-28T03:23:36;10.65;;;8.82;;
8698;SDS011;4386;51.236;6.742;2022-09-28T03:24:39;10.65;;;8.77;;
8698;SDS011;4386;51.236;6.742;2022-09-28T03:25:41;11.43;;;7.60;;
8698;SDS011;4386;51.236;6.742;2022-09-28T03:26:43;8.40;;;7.50;;
8698;SDS011;4386;51.236;6.742;2022-09-28T03:27:45;10.63;;;8.55;;
8698;SDS011;4386;51.236;6.742;2022-09-28T03:28:47;11.80;;;7.72;;
8698;SDS011;4386;51.236;6.742;2022-09-28T03:29:49;11.18;;;8.35;;
8698;SDS011;4386;51.236;6.742;2022-09-28T03:30:51;15.35;;;9.40;;
8698;SDS011;4386;51.236;6.742;2022-09-28T03:31:55;14.60;;;9.38;;
8698;SDS011;4386;51.236;6.742;2022-09-28T03:32:57;11.25;;;8.68;;
8698;SDS011;4386;51.236;6.742;2022-09-28T03:34:00;11.35;;;8.65;;
8698;SDS011;4386;51.236;6.742;2022-09-28T03:35:02;13.95;;;8.38;;
8698;SDS011;4386;51.236;6.742;2022-09-28T03:36:05;11.73;;;8.77;;
8698;SDS011;4386;51.236;6.742;2022-09-28T03:37:09;15.93;;;9.63;;
8698;SDS011;4386;51.236;6.742;2022-09-28T03:38:11;15.13;;;10.25;;
8698;SDS011;4386;51.236;6.742;2022-09-28T03:39:13;15.55;;;9.13;;
8698;SDS011;4386;51.236;6.742;2022-09-28T03:40:15;17.50;;;10.60;;
8698;SDS011;4386;51.236;6.742;2022-09-28T03:41:18;14.07;;;11.02;;
8698;SDS011;4386;51.236;6.742;2022-09-28T03:42:19;13.13;;;9.80;;
8698;SDS011;4386;51.236;6.742;2022-09-28T03:43:22;12.85;;;9.57;;
8698;SDS011;4386;51.236;6.742;2022-09-28T03:44:25;12.82;;;9.10;;
8698;SDS011;4386;51.236;6.742;2022-09-28T03:45:28;13.40;;;9.55;;
8698;SDS011;4386;51.236;6.742;2022-09-28T03:46:30;11.50;;;8.90;;
8698;SDS011;4386;51.236;6.742;2022-09-28T03:47:33;16.88;;;9.55;;
8698;SDS011;4386;51.236;6.742;2022-09-28T03:48:35;20.48;;;10.70;;
8698;SDS011;4386;51.236;6.742;2022-09-28T03:49:38;12.45;;;9.40;;
8698;SDS011;4386;51.236;6.742;2022-09-28T03:50:40;15.48;;;10.27;;
8698;SDS011;4386;51.236;6.742;2022-09-28T03:51:42;13.43;;;10.30;;
8698;SDS011;4386;51.236;6.742;2022-09-28T03:52:44;11.80;;;9.65;;
8698;SDS011;4386;51.236;6.742;2022-09-28T03:53:46;13.65;;;9.90;;
8698;SDS011;4386;51.236;6.742;2022-09-28T03:54:48;12.30;;;9.50;;
8698;SDS011;4386;51.236;6.742;2022-09-28T03:55:51;15.13;;;10.27;;
8698;SDS011;4386;51.236;6.742;2022-09-28T03:56:53;12.30;;;10.10;;
8698;SDS011;4386;51.236;6.742;2022-09-28T03:57:55;14.85;;;10.85;;
8698;SDS011;4386;51.236;6.742;2022-09-28T03:58:57;14.77;;;10.27;;
8698;SDS011;4386;51.236;6.742;2022-09-28T04:00:00;13.00;;;10.50;;
8698;SDS011;4386;51.236;6.742;2022-09-28T04:01:07;11.88;;;10.00;;
8698;SDS011;4386;51.236;6.742;2022-09-28T04:02:17;15.20;;;10.05;;
8698;SDS011;4386;51.236;6.742;2022-09-28T04:03:20;12.73;;;11.10;;
8698;SDS011;4386;51.236;6.742;2022-09-28T04:04:23;14.77;;;11.10;;
8698;SDS011;4386;51.236;6.742;2022-09-28T04:05:24;12.93;;;10.27;;
8698;SDS011;4386;51.236;6.742;2022-09-28T04:06:27;13.23;;;10.57;;
8698;SDS011;4386;51.236;6.742;2022-09-28T04:07:29;12.15;;;10.20;;
8698;SDS011;4386;51.236;6.742;2022-09-28T04:08:31;20.10;;;10.93;;
8698;SDS011;4386;51.236;6.742;2022-09-28T04:09:33;15.80;;;11.10;;
8698;SDS011;4386;51.236;6.742;2022-09-28T04:10:36;13.43;;;10.65;;
8698;SDS011;4386;51.236;6.742;2022-09-28T04:11:37;16.65;;;11.85;;
8698;SDS011;4386;51.236;6.742;2022-09-28T04:13:00;12.85;;;10.40;;
8698;SDS011;4386;51.236;6.742;2022-09-28T04:14:01;14.45;;;11.55;;
8698;SDS011;4386;51.236;6.742;2022-09-28T04:15:04;15.77;;;12.20;;
8698;SDS011;4386;51.236;6.742;2022-09-28T04:16:08;17.00;;;12.75;;
8698;SDS011;4386;51.236;6.742;2022-09-28T04:17:11;16.95;;;11.77;;
8698;SDS011;4386;51.236;6.742;2022-09-28T04:18:13;18.17;;;11.90;;
8698;SDS011;4386;51.236;6.742;2022-09-28T04:19:17;15.10;;;12.93;;
8698;SDS011;4386;51.236;6.742;2022-09-28T04:20:20;17.90;;;11.75;;
8698;SDS011;4386;51.236;6.742;2022-09-28T04:21:22;16.17;;;10.93;;
8698;SDS011;4386;51.236;6.742;2022-09-28T04:22:24;17.23;;;13.23;;
8698;SDS011;4386;51.236;6.742;2022-09-28T04:23:26;19.58;;;12.30;;
8698;SDS011;4386;51.236;6.742;2022-09-28T04:24:29;19.60;;;12.65;;
8698;SDS011;4386;51.236;6.742;2022-09-28T04:25:31;17.00;;;13.57;;
8698;SDS011;4386;51.236;6.742;2022-09-28T04:26:33;14.35;;;11.93;;
8698;SDS011;4386;51.236;6.742;2022-09-28T04:27:35;19.50;;;13.50;;
8698;SDS011;4386;51.236;6.742;2022-09-28T04:28:56;21.90;;;13.43;;
8698;SDS011;4386;51.236;6.742;2022-09-28T04:30:16;15.10;;;13.05;;
8698;SDS011;4386;51.236;6.742;2022-09-28T04:31:18;14.90;;;12.18;;
8698;SDS011;4386;51.236;6.742;2022-09-28T04:32:23;14.13;;;12.60;;
8698;SDS011;4386;51.236;6.742;2022-09-28T04:33:25;17.63;;;13.00;;
8698;SDS011;4386;51.236;6.742;2022-09-28T04:34:29;14.90;;;12.43;;
8698;SDS011;4386;51.236;6.742;2022-09-28T04:35:36;17.90;;;13.20;;
8698;SDS011;4386;51.236;6.742;2022-09-28T04:36:39;17.05;;;13.45;;
8698;SDS011;4386;51.236;6.742;2022-09-28T04:37:40;18.48;;;13.27;;
8698;SDS011;4386;51.236;6.742;2022-09-28T04:38:43;18.42;;;13.13;;
8698;SDS011;4386;51.236;6.742;2022-09-28T04:39:53;15.07;;;12.52;;
8698;SDS011;4386;51.236;6.742;2022-09-28T04:40:56;20.73;;;13.30;;
8698;SDS011;4386;51.236;6.742;2022-09-28T04:41:58;17.65;;;13.60;;
8698;SDS011;4386;51.236;6.742;2022-09-28T04:43:01;21.02;;;13.73;;
8698;SDS011;4386;51.236;6.742;2022-09-28T04:44:03;18.38;;;13.98;;
8698;SDS011;4386;51.236;6.742;2022-09-28T04:45:06;16.67;;;12.88;;
8698;SDS011;4386;51.236;6.742;2022-09-28T04:46:08;17.35;;;12.82;;
8698;SDS011;4386;51.236;6.742;2022-09-28T04:47:11;18.30;;;13.30;;
8698;SDS011;4386;51.236;6.742;2022-09-28T04:48:13;16.30;;;11.95;;
8698;SDS011;4386;51.236;6.742;2022-09-28T04:49:16;19.42;;;14.00;;
8698;SDS011;4386;51.236;6.742;2022-09-28T04:50:19;17.67;;;13.90;;
8698;SDS011;4386;51.236;6.742;2022-09-28T04:51:22;18.40;;;13.57;;
8698;SDS011;4386;51.236;6.742;2022-09-28T04:52:24;15.35;;;12.60;;
8698;SDS011;4386;51.236;6.742;2022-09-28T04:53:28;17.05;;;12.85;;
8698;SDS011;4386;51.236;6.742;2022-09-28T04:54:30;17.30;;;12.50;;
8698;SDS011;4386;51.236;6.742;2022-09-28T04:55:32;16.55;;;14.05;;
8698;SDS011;4386;51.236;6.742;2022-09-28T04:56:34;19.55;;;14.10;;
8698;SDS011;4386;51.236;6.742;2022-09-28T04:57:37;21.33;;;13.07;;
8698;SDS011;4386;51.236;6.742;2022-09-28T04:58:38;17.13;;;11.90;;
8698;SDS011;4386;51.236;6.742;2022-09-28T04:59:41;20.23;;;13.90;;
8698;SDS011;4386;51.236;6.742;2022-09-28T05:00:43;15.65;;;11.73;;
8698;SDS011;4386;51.236;6.742;2022-09-28T05:01:45;17.13;;;12.25;;
8698;SDS011;4386;51.236;6.742;2022-09-28T05:02:48;15.57;;;13.00;;
8698;SDS011;4386;51.236;6.742;2022-09-28T05:03:50;15.93;;;13.02;;
8698;SDS011;4386;51.236;6.742;2022-09-28T05:04:55;17.45;;;13.65;;
8698;SDS011;4386;51.236;6.742;2022-09-28T05:06:00;16.33;;;12.45;;
8698;SDS011;4386;51.236;6.742;2022-09-28T05:07:03;17.23;;;13.77;;
8698;SDS011;4386;51.236;6.742;2022-09-28T05:08:04;16.63;;;13.07;;
8698;SDS011;4386;51.236;6.742;2022-09-28T05:09:07;13.60;;;11.40;;
8698;SDS011;4386;51.236;6.742;2022-09-28T05:10:09;21.02;;;12.55;;
8698;SDS011;4386;51.236;6.742;2022-09-28T05:11:12;20.58;;;12.32;;
8698;SDS011;4386;51.236;6.742;2022-09-28T05:12:14;16.98;;;12.50;;
8698;SDS011;4386;51.236;6.742;2022-09-28T05:13:17;17.58;;;12.60;;
8698;SDS011;4386;51.236;6.742;2022-09-28T05:14:21;20.02;;;12.30;;
8698;SDS011;4386;51.236;6.742;2022-09-28T05:15:24;20.40;;;12.35;;
8698;SDS011;4386;51.236;6.742;2022-09-28T05:16:26;15.20;;;12.63;;
8698;SDS011;4386;51.236;6.742;2022-09-28T05:17:30;19.02;;;12.18;;
8698;SDS011;4386;51.236;6.742;2022-09-28T05:18:31;15.50;;;12.38;;
8698;SDS011;4386;51.236;6.742;2022-09-28T05:19:34;21.77;;;12.68;;
8698;SDS011;4386;51.236;6.742;2022-09-28T05:20:38;18.30;;;12.82;;
8698;SDS011;4386;51.236;6.742;2022-09-28T05:21:44;12.75;;;11.05;;
8698;SDS011;4386;51.236;6.742;2022-09-28T05:22:46;15.82;;;11.90;;
8698;SDS011;4386;51.236;6.742;2022-09-28T05:23:49;11.90;;;10.70;;
8698;SDS011;4386;51.236;6.742;2022-09-28T05:24:51;15.25;;;11.00;;
8698;SDS011;4386;51.236;6.742;2022-09-28T05:25:55;23.50;;;11.82;;
8698;SDS011;4386;51.236;6.742;2022-09-28T05:26:56;16.45;;;11.15;;
8698;SDS011;4386;51.236;6.742;2022-09-28T05:27:59;15.27;;;10.52;;
8698;SDS011;4386;51.236;6.742;2022-09-28T05:29:03;13.27;;;10.38;;
8698;SDS011;4386;51.236;6.742;2022-09-28T05:30:07;14.50;;;10.80;;
8698;SDS011;4386;51.236;6.742;2022-09-28T05:31:11;13.27;;;10.25;;
8698;SDS011;4386;51.236;6.742;2022-09-28T05:32:13;16.23;;;11.73;;
8698;SDS011;4386;51.236;6.742;2022-09-28T05:33:16;14.88;;;11.13;;
8698;SDS011;4386;51.236;6.742;2022-09-28T05:34:19;12.70;;;9.90;;
8698;SDS011;4386;51.236;6.742;2022-09-28T05:35:21;19.20;;;11.15;;
8698;SDS011;4386;51.236;6.742;2022-09-28T05:36:23;14.55;;;11.23;;
8698;SDS011;4386;51.236;6.742;2022-09-28T05:37:29;14.30;;;10.95;;
8698;SDS011;4386;51.236;6.742;2022-09-28T05:38:31;13.60;;;10.25;;
8698;SDS011;4386;51.236;6.742;2022-09-28T05:39:34;12.05;;;10.25;;
8698;SDS011;4386;51.236;6.742;2022-09-28T05:40:35;20.48;;;11.55;;
8698;SDS011;4386;51.236;6.742;2022-09-28T05:41:38;13.88;;;9.55;;
8698;SDS011;4386;51.236;6.742;2022-09-28T05:42:39;14.35;;;10.00;;
8698;SDS011;4386;51.236;6.742;2022-09-28T05:43:42;10.80;;;9.45;;
8698;SDS011;4386;51.236;6.742;2022-09-28T05:44:45;13.52;;;10.18;;
8698;SDS011;4386;51.236;6.742;2022-09-28T05:45:47;13.50;;;9.40;;
8698;SDS011;4386;51.236;6.742;2022-09-28T05:46:55;15.60;;;10.45;;
8698;SDS011;4386;51.236;6.742;2022-09-28T05:47:57;14.30;;;10.25;;
8698;SDS011;4386;51.236;6.742;2022-09-28T05:48:59;14.40;;;10.32;;
8698;SDS011;4386;51.236;6.742;2022-09-28T05:50:01;17.45;;;10.68;;
8698;SDS011;4386;51.236;6.742;2022-09-28T05:51:03;13.40;;;9.68;;
8698;SDS011;4386;51.236;6.742;2022-09-28T05:52:06;13.60;;;10.30;;
8698;SDS011;4386;51.236;6.742;2022-09-28T05:53:09;15.95;;;10.48;;
8698;SDS011;4386;51.236;6.742;2022-09-28T05:54:13;14.85;;;10.57;;
8698;SDS011;4386;51.236;6.742;2022-09-28T05:55:15;12.80;;;10.02;;
8698;SDS011;4386;51.236;6.742;2022-09-28T05:56:18;12.20;;;9.30;;
8698;SDS011;4386;51.236;6.742;2022-09-28T05:57:19;12.60;;;8.88;;
8698;SDS011;4386;51.236;6.742;2022-09-28T05:58:22;14.07;;;9.90;;
8698;SDS011;4386;51.236;6.742;2022-09-28T05:59:24;11.25;;;9.32;;
8698;SDS011;4386;51.236;6.742;2022-09-28T06:00:27;12.15;;;9.63;;
8698;SDS011;4386;51.236;6.742;2022-09-28T06:01:31;13.45;;;9.15;;
8698;SDS011;4386;51.236;6.742;2022-09-28T06:02:33;10.88;;;8.95;;
8698;SDS011;4386;51.236;6.742;2022-09-28T06:03:36;11.52;;;8.98;;
8698;SDS011;4386;51.236;6.742;2022-09-28T06:04:37;10.25;;;8.55;;
8698;SDS011;4386;51.236;6.742;2022-09-28T06:05:40;10.02;;;8.20;;
8698;SDS011;4386;51.236;6.742;2022-09-28T06:06:42;10.43;;;8.65;;
8698;SDS011;4386;51.236;6.742;2022-09-28T06:07:44;11.82;;;8.40;;
8698;SDS011;4386;51.236;6.742;2022-09-28T06:08:47;10.40;;;8.57;;
8698;SDS011;4386;51.236;6.742;2022-09-28T06:09:50;11.13;;;8.90;;
8698;SDS011;4386;51.236;6.742;2022-09-28T06:10:51;13.05;;;9.10;;
8698;SDS011;4386;51.236;6.742;2022-09-28T06:11:54;11.52;;;7.75;;
8698;SDS011;4386;51.236;6.742;2022-09-28T06:12:57;9.55;;;8.55;;
8698;SDS011;4386;51.236;6.742;2022-09-28T06:14:00;19.02;;;9.40;;
8698;SDS011;4386;51.236;6.742;2022-09-28T06:15:02;11.60;;;7.97;;
8698;SDS011;4386;51.236;6.742;2022-09-28T06:16:05;14.35;;;8.25;;
8698;SDS011;4386;51.236;6.742;2022-09-28T06:17:08;9.77;;;8.55;;
8698;SDS011;4386;51.236;6.742;2022-09-28T06:18:11;9.68;;;7.65;;
8698;SDS011;4386;51.236;6.742;2022-09-28T06:19:15;15.68;;;8.75;;
8698;SDS011;4386;51.236;6.742;2022-09-28T06:20:16;9.57;;;7.00;;
8698;SDS011;4386;51.236;6.742;2022-09-28T06:21:19;10.45;;;8.02;;
8698;SDS011;4386;51.236;6.742;2022-09-28T06:22:21;10.30;;;7.45;;
8698;SDS011;4386;51.236;6.742;2022-09-28T06:23:23;14.80;;;8.70;;
8698;SDS011;4386;51.236;6.742;2022-09-28T06:24:27;10.30;;;8.45;;
8698;SDS011;4386;51.236;6.742;2022-09-28T06:25:29;17.70;;;9.20;;
8698;SDS011;4386;51.236;6.742;2022-09-28T06:28:21;18.33;;;11.93;;
8698;SDS011;4386;51.236;6.742;2022-09-28T06:29:23;24.00;;;9.50;;
8698;SDS011;4386;51.236;6.742;2022-09-28T06:30:25;13.45;;;8.25;;
8698;SDS011;4386;51.236;6.742;2022-09-28T06:31:29;9.20;;;8.15;;
8698;SDS011;4386;51.236;6.742;2022-09-28T06:32:31;13.15;;;7.60;;
8698;SDS011;4386;51.236;6.742;2022-09-28T06:33:33;11.05;;;8.60;;
8698;SDS011;4386;51.236;6.742;2022-09-28T06:34:38;11.00;;;7.60;;
8698;SDS011;4386;51.236;6.742;2022-09-28T06:35:42;9.20;;;7.50;;
8698;SDS011;4386;51.236;6.742;2022-09-28T06:36:44;10.30;;;7.53;;
8698;SDS011;4386;51.236;6.742;2022-09-28T06:37:46;9.85;;;7.65;;
8698;SDS011;4386;51.236;6.742;2022-09-28T06:38:49;8.63;;;7.22;;
8698;SDS011;4386;51.236;6.742;2022-09-28T06:39:52;9.88;;;8.15;;